^^
Station Historical Data
Daily Summary for November 09, 2018 Units:  Both    English   Metric
« Previous Day
Next Day »
Daily Weekly Monthly Yearly Custom
  High: Low: Average:
Temperature: TemperatureF °F /  -17.8 °C 26.3 °F /  -3.2 °C 31.2 °F /  -0.4 °C
Dew Point: DewpointF °F /  -17.8 °C 24.5 °F /  -4.2 °C 29.1 °F /  -1.6 °C
Humidity: Humidity % 82 % 91 %
Wind Speed: WindSpeedMPH mph /  0 km/h - 0.4 mph /  0.6 km/h
Wind Gust: WindSpeedGustMPH mph /  0 km/h - -
Wind:- - ESE
Pressure: PressureIn in /  0 hPa 29.81 in /  1009.4 hPa -
Precipitation: 0.56 in /  14.22 mm    
Historical Graphs
 
 
Tabular Data for November 09, 2018
Time Temperature Dew Point Pressure Wind Wind Speed Wind Gust Humidity Rainfall Rate (Hourly) solar Conditions
TemperatureF °F /  -17.8 °C DewpointF °F /  -17.8 °C PressureIn in /  0 hPa Calm     Humidity % HourlyPrecipIn in /  0 mm SoftwareType W/m2 Conditions
00:05 33.2 °F /  0.7 °C 30.6 °F /  -0.8 °C 30.30 in /  1026 hPa NNW 2.0 mph /  3.2 km/h 5.0 mph /  8 km/h 90 % 0.00 in /  0 mm WeatherDisplay:10.37 W/m2 RA
00:10 33.1 °F /  0.6 °C 30.5 °F /  -0.8 °C 30.30 in /  1026 hPa Calm   5.0 mph /  8 km/h 90 % 0.00 in /  0 mm WeatherDisplay:10.37 W/m2 FEW
00:15 33.1 °F /  0.6 °C 30.5 °F /  -0.8 °C 30.30 in /  1026 hPa NNW 1.0 mph /  1.6 km/h 4.0 mph /  6.4 km/h 90 % 0.00 in /  0 mm WeatherDisplay:10.37 W/m2 FEW
00:20 33.1 °F /  0.6 °C 30.7 °F /  -0.7 °C 30.30 in /  1026 hPa Calm   3.0 mph /  4.8 km/h 91 % 0.00 in /  0 mm WeatherDisplay:10.37 W/m2 FEW
00:25 33.0 °F /  0.6 °C 30.7 °F /  -0.7 °C 30.30 in /  1026 hPa Calm   2.0 mph /  3.2 km/h 91 % 0.00 in /  0 mm WeatherDisplay:10.37 W/m2 FEW
00:30 32.9 °F /  0.5 °C 30.3 °F /  -0.9 °C 30.30 in /  1026 hPa Calm     90 % 0.00 in /  0 mm WeatherDisplay:10.37 W/m2 FEW
00:35 32.8 °F /  0.4 °C 30.2 °F /  -1 °C 30.31 in /  1026.3 hPa Calm     90 % 0.00 in /  0 mm WeatherDisplay:10.37 W/m2 FEW
00:40 32.7 °F /  0.4 °C 30.1 °F /  -1.1 °C 30.31 in /  1026.3 hPa Calm     90 % 0.00 in /  0 mm WeatherDisplay:10.37 W/m2 FEW
00:45 32.5 °F /  0.3 °C 29.9 °F /  -1.2 °C 30.31 in /  1026.3 hPa Calm     90 % 0.00 in /  0 mm WeatherDisplay:10.37 W/m2 FEW
00:50 32.3 °F /  0.2 °C 29.7 °F /  -1.3 °C 30.31 in /  1026.3 hPa Calm     90 % 0.00 in /  0 mm WeatherDisplay:10.37 W/m2 FEW
00:55 32.1 °F /  0.1 °C 29.2 °F /  -1.6 °C 30.31 in /  1026.3 hPa Calm     89 % 0.00 in /  0 mm WeatherDisplay:10.37 W/m2 FEW
01:00 31.8 °F /  -0.1 °C 28.9 °F /  -1.7 °C 30.31 in /  1026.3 hPa Calm     89 % 0.00 in /  0 mm WeatherDisplay:10.37 W/m2 FEW
01:05 31.6 °F /  -0.2 °C 28.7 °F /  -1.8 °C 30.31 in /  1026.3 hPa Calm     89 % 0.00 in /  0 mm WeatherDisplay:10.37 W/m2 FEW
01:10 31.5 °F /  -0.3 °C 28.6 °F /  -1.9 °C 30.32 in /  1026.6 hPa Calm     89 % 0.00 in /  0 mm WeatherDisplay:10.37 W/m2 FEW
01:15 31.3 °F /  -0.4 °C 28.7 °F /  -1.8 °C 30.32 in /  1026.6 hPa Calm     90 % 0.00 in /  0 mm WeatherDisplay:10.37 W/m2 FEW
01:20 31.1 °F /  -0.5 °C 28.5 °F /  -1.9 °C 30.32 in /  1026.6 hPa Calm     90 % 0.00 in /  0 mm WeatherDisplay:10.37 W/m2 FEW
01:35 30.5 °F /  -0.8 °C 27.9 °F /  -2.3 °C 30.32 in /  1026.6 hPa Calm     90 % 0.00 in /  0 mm WeatherDisplay:10.37 W/m2 FEW
01:40 30.4 °F /  -0.9 °C 27.8 °F /  -2.3 °C 30.33 in /  1027 hPa Calm     90 % 0.00 in /  0 mm WeatherDisplay:10.37 W/m2 FEW
01:45 30.2 °F /  -1 °C 27.9 °F /  -2.3 °C 30.33 in /  1027 hPa Calm     91 % 0.00 in /  0 mm WeatherDisplay:10.37 W/m2 FEW
01:50 30.2 °F /  -1 °C 27.9 °F /  -2.3 °C 30.33 in /  1027 hPa Calm     91 % 0.00 in /  0 mm WeatherDisplay:10.37 W/m2 FEW
02:05 29.8 °F /  -1.2 °C 27.5 °F /  -2.5 °C 30.33 in /  1027 hPa Calm   1.0 mph /  1.6 km/h 91 % 0.00 in /  0 mm WeatherDisplay:10.37 W/m2 FEW
02:20 29.7 °F /  -1.3 °C 27.7 °F /  -2.4 °C 30.33 in /  1027 hPa Calm   4.0 mph /  6.4 km/h 92 % 0.00 in /  0 mm WeatherDisplay:10.37 W/m2 FEW
02:30 29.9 °F /  -1.2 °C 28.1 °F /  -2.2 °C 30.33 in /  1027 hPa Calm     93 % 0.00 in /  0 mm WeatherDisplay:10.37 W/m2 FEW
02:55 30.4 °F /  -0.9 °C 28.6 °F /  -1.9 °C 30.34 in /  1027.3 hPa Calm   1.0 mph /  1.6 km/h 93 % 0.00 in /  0 mm WeatherDisplay:10.37 W/m2 FEW
03:05 30.5 °F /  -0.8 °C 29.0 °F /  -1.7 °C 30.34 in /  1027.3 hPa NNW 1.0 mph /  1.6 km/h 4.0 mph /  6.4 km/h 94 % 0.00 in /  0 mm WeatherDisplay:10.37 W/m2 FEW
03:10 30.5 °F /  -0.8 °C 29.0 °F /  -1.7 °C 30.33 in /  1027 hPa Calm   1.0 mph /  1.6 km/h 94 % 0.00 in /  0 mm WeatherDisplay:10.37 W/m2 FEW
03:15 30.6 °F /  -0.8 °C 29.1 °F /  -1.6 °C 30.33 in /  1027 hPa Calm     94 % 0.00 in /  0 mm WeatherDisplay:10.37 W/m2 FEW
03:25 30.6 °F /  -0.8 °C 29.1 °F /  -1.6 °C 30.33 in /  1027 hPa Calm     94 % 0.00 in /  0 mm WeatherDisplay:10.37 W/m2 FEW
03:35 30.6 °F /  -0.8 °C 29.1 °F /  -1.6 °C 30.33 in /  1027 hPa Calm     94 % 0.00 in /  0 mm WeatherDisplay:10.37 W/m2 FEW
04:10 29.9 °F /  -1.2 °C 28.1 °F /  -2.2 °C 30.35 in /  1027.7 hPa Calm     93 % 0.00 in /  0 mm WeatherDisplay:10.37 W/m2 FEW
04:15 29.8 °F /  -1.2 °C 28.0 °F /  -2.2 °C 30.35 in /  1027.7 hPa Calm     93 % 0.00 in /  0 mm WeatherDisplay:10.37 W/m2 FEW
04:20 29.6 °F /  -1.3 °C 27.8 °F /  -2.3 °C 30.35 in /  1027.7 hPa Calm     93 % 0.00 in /  0 mm WeatherDisplay:10.37 W/m2 FEW
04:25 29.5 °F /  -1.4 °C 27.7 °F /  -2.4 °C 30.35 in /  1027.7 hPa Calm     93 % 0.00 in /  0 mm WeatherDisplay:10.37 W/m2 FEW
04:35 29.2 °F /  -1.6 °C 27.4 °F /  -2.6 °C 30.35 in /  1027.7 hPa Calm     93 % 0.00 in /  0 mm WeatherDisplay:10.37 W/m2 FEW
04:45 28.8 °F /  -1.8 °C 27.1 °F /  -2.7 °C 30.35 in /  1027.7 hPa Calm     93 % 0.00 in /  0 mm WeatherDisplay:10.37 W/m2 FEW
05:00 28.4 °F /  -2 °C 26.4 °F /  -3.1 °C 30.35 in /  1027.7 hPa Calm     92 % 0.00 in /  0 mm WeatherDisplay:10.37 W/m2 FEW
05:10 28.2 °F /  -2.1 °C 26.2 °F /  -3.2 °C 30.34 in /  1027.3 hPa Calm     92 % 0.00 in /  0 mm WeatherDisplay:10.37 W/m2 FEW
05:35 27.7 °F /  -2.4 °C 25.7 °F /  -3.5 °C 30.35 in /  1027.7 hPa Calm     92 % 0.00 in /  0 mm WeatherDisplay:10.37 W/m2 FEW
05:40 27.5 °F /  -2.5 °C 25.5 °F /  -3.6 °C 30.35 in /  1027.7 hPa Calm     92 % 0.00 in /  0 mm WeatherDisplay:10.37 W/m2 FEW
05:55 27.1 °F /  -2.7 °C 25.1 °F /  -3.8 °C 30.35 in /  1027.7 hPa Calm     92 % 0.00 in /  0 mm WeatherDisplay:10.37 W/m2 FEW
06:00 27.0 °F /  -2.8 °C 25.0 °F /  -3.9 °C 30.35 in /  1027.7 hPa Calm     92 % 0.00 in /  0 mm WeatherDisplay:10.37 W/m2 FEW
06:05 26.9 °F /  -2.8 °C 24.9 °F /  -3.9 °C 30.35 in /  1027.7 hPa Calm     92 % 0.00 in /  0 mm WeatherDisplay:10.37 W/m2 FEW
06:20 26.6 °F /  -3 °C 24.6 °F /  -4.1 °C 30.35 in /  1027.7 hPa Calm     92 % 0.00 in /  0 mm WeatherDisplay:10.37 W/m2 FEW
06:25 26.5 °F /  -3.1 °C 24.5 °F /  -4.2 °C 30.35 in /  1027.7 hPa Calm     92 % 0.00 in /  0 mm WeatherDisplay:10.37 W/m2 FEW
06:30 26.5 °F /  -3.1 °C 24.5 °F /  -4.2 °C 30.35 in /  1027.7 hPa Calm     92 % 0.00 in /  0 mm WeatherDisplay:10.37 W/m2 FEW
06:40 26.3 °F /  -3.2 °C 24.6 °F /  -4.1 °C 30.34 in /  1027.3 hPa Calm     93 % 0.00 in /  0 mm WeatherDisplay:10.37 W/m2 FEW
07:00 26.3 °F /  -3.2 °C 24.5 °F /  -4.2 °C 30.34 in /  1027.3 hPa Calm     93 % 0.00 in /  0 mm WeatherDisplay:10.37 W/m2 FEW
07:20 26.4 °F /  -3.1 °C 24.9 °F /  -3.9 °C 30.34 in /  1027.3 hPa Calm     94 % 0.00 in /  0 mm WeatherDisplay:10.37 W/m2 FEW
07:30 26.6 °F /  -3 °C 25.1 °F /  -3.8 °C 30.34 in /  1027.3 hPa Calm     94 % 0.00 in /  0 mm WeatherDisplay:10.37 W/m2 FEW
07:35 26.8 °F /  -2.9 °C 25.3 °F /  -3.7 °C 30.33 in /  1027 hPa Calm     94 % 0.00 in /  0 mm WeatherDisplay:10.37 W/m2 FEW
07:40 26.9 °F /  -2.8 °C 25.4 °F /  -3.7 °C 30.33 in /  1027 hPa Calm     94 % 0.00 in /  0 mm WeatherDisplay:10.37 W/m2 FEW
07:55 27.3 °F /  -2.6 °C 25.8 °F /  -3.4 °C 30.33 in /  1027 hPa Calm     94 % 0.00 in /  0 mm WeatherDisplay:10.37 W/m2 FEW
08:00 27.4 °F /  -2.6 °C 25.9 °F /  -3.4 °C 30.33 in /  1027 hPa Calm     94 % 0.00 in /  0 mm WeatherDisplay:10.37 W/m2 FEW
08:15 27.9 °F /  -2.3 °C 26.7 °F /  -2.9 °C 30.33 in /  1027 hPa Calm     95 % 0.00 in /  0 mm WeatherDisplay:10.37 W/m2 FEW
08:25 28.4 °F /  -2 °C 27.1 °F /  -2.7 °C 30.34 in /  1027.3 hPa Calm     95 % 0.00 in /  0 mm WeatherDisplay:10.37 W/m2 FEW
08:30 28.6 °F /  -1.9 °C 27.4 °F /  -2.6 °C 30.34 in /  1027.3 hPa Calm     95 % 0.00 in /  0 mm WeatherDisplay:10.37 W/m2 FEW
08:45 30.0 °F /  -1.1 °C 29.0 °F /  -1.7 °C 30.33 in /  1027 hPa Calm   3.0 mph /  4.8 km/h 96 % 0.00 in /  0 mm WeatherDisplay:10.37 W/m2 FEW
08:55 30.6 °F /  -0.8 °C 29.3 °F /  -1.5 °C 30.33 in /  1027 hPa Calm   2.0 mph /  3.2 km/h 95 % 0.00 in /  0 mm WeatherDisplay:10.37 W/m2 FEW
09:00 30.8 °F /  -0.7 °C 29.8 °F /  -1.2 °C 30.34 in /  1027.3 hPa Calm   2.0 mph /  3.2 km/h 96 % 0.00 in /  0 mm WeatherDisplay:10.37 W/m2 FEW
09:10 31.1 °F /  -0.5 °C 29.8 °F /  -1.2 °C 30.33 in /  1027 hPa Calm   1.0 mph /  1.6 km/h 95 % 0.00 in /  0 mm WeatherDisplay:10.37 W/m2 FEW
09:15 31.2 °F /  -0.4 °C 30.0 °F /  -1.1 °C 30.34 in /  1027.3 hPa Calm   1.0 mph /  1.6 km/h 95 % 0.00 in /  0 mm WeatherDisplay:10.37 W/m2 FEW
09:20 31.4 °F /  -0.3 °C 30.1 °F /  -1.1 °C 30.34 in /  1027.3 hPa Calm   1.0 mph /  1.6 km/h 95 % 0.00 in /  0 mm WeatherDisplay:10.37 W/m2 FEW
09:35 31.8 °F /  -0.1 °C 30.5 °F /  -0.8 °C 30.34 in /  1027.3 hPa Calm   1.0 mph /  1.6 km/h 95 % 0.00 in /  0 mm WeatherDisplay:10.37 W/m2 FEW
09:40 31.9 °F /  -0.1 °C 30.6 °F /  -0.8 °C 30.34 in /  1027.3 hPa Calm   1.0 mph /  1.6 km/h 95 % 0.00 in /  0 mm WeatherDisplay:10.37 W/m2 FEW
09:45 31.9 °F /  -0.1 °C 30.4 °F /  -0.9 °C 30.34 in /  1027.3 hPa Calm   1.0 mph /  1.6 km/h 94 % 0.00 in /  0 mm WeatherDisplay:10.37 W/m2 FEW
10:05 32.3 °F /  0.2 °C 30.5 °F /  -0.8 °C 30.35 in /  1027.7 hPa Calm   1.0 mph /  1.6 km/h 93 % 0.00 in /  0 mm WeatherDisplay:10.37 W/m2 FEW
10:30 32.7 °F /  0.4 °C 30.1 °F /  -1.1 °C 30.34 in /  1027.3 hPa Calm   2.0 mph /  3.2 km/h 90 % 0.00 in /  0 mm WeatherDisplay:10.37 W/m2 FEW
10:35 32.8 °F /  0.4 °C 30.2 °F /  -1 °C 30.33 in /  1027 hPa East 1.0 mph /  1.6 km/h 5.0 mph /  8 km/h 90 % 0.00 in /  0 mm WeatherDisplay:10.37 W/m2 FEW
10:45 33.0 °F /  0.6 °C 30.1 °F /  -1.1 °C 30.33 in /  1027 hPa ESE 1.0 mph /  1.6 km/h 9.0 mph /  14.5 km/h 89 % 0.00 in /  0 mm WeatherDisplay:10.37 W/m2 FEW
10:50 33.0 °F /  0.6 °C 29.8 °F /  -1.2 °C 30.33 in /  1027 hPa East 1.0 mph /  1.6 km/h 5.0 mph /  8 km/h 88 % 0.00 in /  0 mm WeatherDisplay:10.37 W/m2 FEW
10:55 33.1 °F /  0.6 °C 29.9 °F /  -1.2 °C 30.33 in /  1027 hPa ESE 2.0 mph /  3.2 km/h 7.0 mph /  11.3 km/h 88 % 0.00 in /  0 mm WeatherDisplay:10.37 W/m2 FEW
11:00 33.1 °F /  0.6 °C 29.9 °F /  -1.2 °C 30.32 in /  1026.6 hPa East 2.0 mph /  3.2 km/h 6.0 mph /  9.7 km/h 88 % 0.00 in /  0 mm WeatherDisplay:10.37 W/m2 FEW
11:25 33.3 °F /  0.7 °C 29.9 °F /  -1.2 °C 30.30 in /  1026 hPa Calm   3.0 mph /  4.8 km/h 87 % 0.00 in /  0 mm WeatherDisplay:10.37 W/m2 FEW
11:30 33.4 °F /  0.8 °C 29.9 °F /  -1.2 °C 30.30 in /  1026 hPa Calm   3.0 mph /  4.8 km/h 87 % 0.00 in /  0 mm WeatherDisplay:10.37 W/m2 FEW
11:35 33.4 °F /  0.8 °C 30.0 °F /  -1.1 °C 30.30 in /  1026 hPa Calm   4.0 mph /  6.4 km/h 87 % 0.00 in /  0 mm WeatherDisplay:10.37 W/m2 FEW
11:40 33.5 °F /  0.8 °C 30.0 °F /  -1.1 °C 30.31 in /  1026.3 hPa Calm   6.0 mph /  9.7 km/h 87 % 0.00 in /  0 mm WeatherDisplay:10.37 W/m2 FEW
11:50 33.5 °F /  0.8 °C 29.7 °F /  -1.3 °C 30.31 in /  1026.3 hPa East 1.0 mph /  1.6 km/h 7.0 mph /  11.3 km/h 86 % 0.00 in /  0 mm WeatherDisplay:10.37 W/m2 FEW
12:00 33.4 °F /  0.8 °C 29.7 °F /  -1.3 °C 30.30 in /  1026 hPa East 1.0 mph /  1.6 km/h 5.0 mph /  8 km/h 86 % 0.00 in /  0 mm WeatherDisplay:10.37 W/m2 FEW
12:05 33.4 °F /  0.8 °C 29.7 °F /  -1.3 °C 30.30 in /  1026 hPa ESE 1.0 mph /  1.6 km/h 9.0 mph /  14.5 km/h 86 % 0.00 in /  0 mm WeatherDisplay:10.37 W/m2 FEW
12:25 33.3 °F /  0.7 °C 29.6 °F /  -1.3 °C 30.30 in /  1026 hPa Calm   2.0 mph /  3.2 km/h 86 % 0.00 in /  0 mm WeatherDisplay:10.37 W/m2 FEW
12:30 33.3 °F /  0.7 °C 29.6 °F /  -1.3 °C 30.29 in /  1025.6 hPa Calm   2.0 mph /  3.2 km/h 86 % 0.00 in /  0 mm WeatherDisplay:10.37 W/m2 FEW
12:50 33.1 °F /  0.6 °C 28.8 °F /  -1.8 °C 30.27 in /  1024.9 hPa East 1.0 mph /  1.6 km/h 7.0 mph /  11.3 km/h 84 % 0.00 in /  0 mm WeatherDisplay:10.37 W/m2 FEW
13:00 33.1 °F /  0.6 °C 28.8 °F /  -1.8 °C 30.27 in /  1024.9 hPa Calm   5.0 mph /  8 km/h 84 % 0.00 in /  0 mm WeatherDisplay:10.37 W/m2 FEW
13:15 33.1 °F /  0.6 °C 28.8 °F /  -1.8 °C 30.26 in /  1024.6 hPa ESE 1.0 mph /  1.6 km/h 7.0 mph /  11.3 km/h 84 % 0.00 in /  0 mm WeatherDisplay:10.37 W/m2 RA
13:25 33.1 °F /  0.6 °C 28.5 °F /  -1.9 °C 30.26 in /  1024.6 hPa Calm   3.0 mph /  4.8 km/h 83 % 0.00 in /  0 mm WeatherDisplay:10.37 W/m2 FEW
13:30 33.2 °F /  0.7 °C 28.6 °F /  -1.9 °C 30.26 in /  1024.6 hPa Calm   2.0 mph /  3.2 km/h 83 % 0.00 in /  0 mm WeatherDisplay:10.37 W/m2 FEW
13:35 33.3 °F /  0.7 °C 28.7 °F /  -1.8 °C 30.26 in /  1024.6 hPa Calm   6.0 mph /  9.7 km/h 83 % 0.00 in /  0 mm WeatherDisplay:10.37 W/m2 FEW
13:45 33.3 °F /  0.7 °C 28.4 °F /  -2 °C 30.26 in /  1024.6 hPa Calm   9.0 mph /  14.5 km/h 82 % 0.00 in /  0 mm WeatherDisplay:10.37 W/m2 FEW
13:50 33.3 °F /  0.7 °C 28.4 °F /  -2 °C 30.26 in /  1024.6 hPa Calm   3.0 mph /  4.8 km/h 82 % 0.00 in /  0 mm WeatherDisplay:10.37 W/m2 FEW
13:55 33.4 °F /  0.8 °C 28.8 °F /  -1.8 °C 30.26 in /  1024.6 hPa Calm   3.0 mph /  4.8 km/h 83 % 0.00 in /  0 mm WeatherDisplay:10.37 W/m2 FEW
14:00 33.4 °F /  0.8 °C 28.8 °F /  -1.8 °C 30.26 in /  1024.6 hPa Calm   2.0 mph /  3.2 km/h 83 % 0.00 in /  0 mm WeatherDisplay:10.37 W/m2 FEW
14:10 33.4 °F /  0.8 °C 28.8 °F /  -1.8 °C 30.25 in /  1024.3 hPa East 2.0 mph /  3.2 km/h 8.0 mph /  12.9 km/h 83 % 0.00 in /  0 mm WeatherDisplay:10.37 W/m2 FEW
14:15 33.4 °F /  0.8 °C 28.8 °F /  -1.8 °C 30.25 in /  1024.3 hPa East 1.0 mph /  1.6 km/h 5.0 mph /  8 km/h 83 % 0.00 in /  0 mm WeatherDisplay:10.37 W/m2 FEW
14:20 33.4 °F /  0.8 °C 28.8 °F /  -1.8 °C 30.24 in /  1023.9 hPa Calm   3.0 mph /  4.8 km/h 83 % 0.00 in /  0 mm WeatherDisplay:10.37 W/m2 FEW
14:30 33.4 °F /  0.8 °C 28.8 °F /  -1.8 °C 30.23 in /  1023.6 hPa East 1.0 mph /  1.6 km/h 6.0 mph /  9.7 km/h 83 % 0.00 in /  0 mm WeatherDisplay:10.37 W/m2 FEW
14:40 33.3 °F /  0.7 °C 29.0 °F /  -1.7 °C 30.23 in /  1023.6 hPa East 1.0 mph /  1.6 km/h 7.0 mph /  11.3 km/h 84 % 0.00 in /  0 mm WeatherDisplay:10.37 W/m2 FEW
14:45 33.3 °F /  0.7 °C 29.0 °F /  -1.7 °C 30.22 in /  1023.2 hPa Calm   4.0 mph /  6.4 km/h 84 % 0.00 in /  0 mm WeatherDisplay:10.37 W/m2 FEW
14:50 33.3 °F /  0.7 °C 29.0 °F /  -1.7 °C 30.22 in /  1023.2 hPa Calm   7.0 mph /  11.3 km/h 84 % 0.00 in /  0 mm WeatherDisplay:10.37 W/m2 FEW
15:00 33.2 °F /  0.7 °C 29.4 °F /  -1.4 °C 30.23 in /  1023.6 hPa East 1.0 mph /  1.6 km/h 6.0 mph /  9.7 km/h 86 % 0.00 in /  0 mm WeatherDisplay:10.37 W/m2 FEW
15:05 33.0 °F /  0.6 °C 29.8 °F /  -1.2 °C 30.23 in /  1023.6 hPa East 1.0 mph /  1.6 km/h 4.0 mph /  6.4 km/h 88 % 0.00 in /  0 mm WeatherDisplay:10.37 W/m2 FEW
15:10 32.8 °F /  0.4 °C 29.7 °F /  -1.3 °C 30.22 in /  1023.2 hPa East 1.0 mph /  1.6 km/h 5.0 mph /  8 km/h 88 % 0.00 in /  0 mm WeatherDisplay:10.37 W/m2 FEW
15:15 32.6 °F /  0.3 °C 29.7 °F /  -1.3 °C 30.22 in /  1023.2 hPa East 1.0 mph /  1.6 km/h 7.0 mph /  11.3 km/h 89 % 0.00 in /  0 mm WeatherDisplay:10.37 W/m2 FEW
15:20 32.5 °F /  0.3 °C 29.9 °F /  -1.2 °C 30.21 in /  1022.9 hPa Calm   5.0 mph /  8 km/h 90 % 0.00 in /  0 mm WeatherDisplay:10.37 W/m2 FEW
15:25 32.4 °F /  0.2 °C 29.8 °F /  -1.2 °C 30.21 in /  1022.9 hPa Calm   3.0 mph /  4.8 km/h 90 % 0.00 in /  0 mm WeatherDisplay:10.37 W/m2 FEW
15:30 32.3 °F /  0.2 °C 30.0 °F /  -1.1 °C 30.20 in /  1022.6 hPa Calm   3.0 mph /  4.8 km/h 91 % 0.00 in /  0 mm WeatherDisplay:10.37 W/m2 FEW
15:40 32.2 °F /  0.1 °C 29.9 °F /  -1.2 °C 30.20 in /  1022.6 hPa East 1.0 mph /  1.6 km/h 5.0 mph /  8 km/h 91 % 0.00 in /  0 mm WeatherDisplay:10.37 W/m2 FEW
16:00 31.9 °F /  -0.1 °C 29.8 °F /  -1.2 °C 30.20 in /  1022.6 hPa Calm   5.0 mph /  8 km/h 92 % 0.00 in /  0 mm WeatherDisplay:10.37 W/m2 FEW
16:05 31.9 °F /  -0.1 °C 29.8 °F /  -1.2 °C 30.20 in /  1022.6 hPa Calm   5.0 mph /  8 km/h 92 % 0.00 in /  0 mm WeatherDisplay:10.37 W/m2 FEW
16:10 31.8 °F /  -0.1 °C 29.7 °F /  -1.3 °C 30.20 in /  1022.6 hPa East 1.0 mph /  1.6 km/h 3.0 mph /  4.8 km/h 92 % 0.00 in /  0 mm WeatherDisplay:10.37 W/m2 FEW
16:30 31.7 °F /  -0.2 °C 29.9 °F /  -1.2 °C 30.18 in /  1021.9 hPa Calm   2.0 mph /  3.2 km/h 93 % 0.00 in /  0 mm WeatherDisplay:10.37 W/m2 FEW
16:35 31.6 °F /  -0.2 °C 29.9 °F /  -1.2 °C 30.18 in /  1021.9 hPa Calm   5.0 mph /  8 km/h 93 % 0.00 in /  0 mm WeatherDisplay:10.37 W/m2 FEW
17:00 31.5 °F /  -0.3 °C 29.7 °F /  -1.3 °C 30.15 in /  1020.9 hPa Calm   3.0 mph /  4.8 km/h 93 % 0.00 in /  0 mm WeatherDisplay:10.37 W/m2 FEW
17:05 31.5 °F /  -0.3 °C 29.7 °F /  -1.3 °C 30.15 in /  1020.9 hPa ENE 2.0 mph /  3.2 km/h 7.0 mph /  11.3 km/h 93 % 0.01 in /  0.25 mm WeatherDisplay:10.37 W/m2 RA
17:20 31.4 °F /  -0.3 °C 29.9 °F /  -1.2 °C 30.14 in /  1020.5 hPa East 1.0 mph /  1.6 km/h 6.0 mph /  9.7 km/h 94 % 0.00 in /  0 mm WeatherDisplay:10.37 W/m2 FEW
17:25 31.4 °F /  -0.3 °C 29.9 °F /  -1.2 °C 30.13 in /  1020.2 hPa East 1.0 mph /  1.6 km/h 5.0 mph /  8 km/h 94 % 0.01 in /  0.25 mm WeatherDisplay:10.37 W/m2 RA
17:30 31.4 °F /  -0.3 °C 29.9 °F /  -1.2 °C 30.13 in /  1020.2 hPa East 1.0 mph /  1.6 km/h 6.0 mph /  9.7 km/h 94 % 0.00 in /  0 mm WeatherDisplay:10.37 W/m2 RA
17:35 31.3 °F /  -0.4 °C 29.8 °F /  -1.2 °C 30.12 in /  1019.9 hPa East 2.0 mph /  3.2 km/h 8.0 mph /  12.9 km/h 94 % 0.00 in /  0 mm WeatherDisplay:10.37 W/m2 FEW
17:45 31.3 °F /  -0.4 °C 29.8 °F /  -1.2 °C 30.11 in /  1019.5 hPa East 2.0 mph /  3.2 km/h 7.0 mph /  11.3 km/h 94 % 0.00 in /  0 mm WeatherDisplay:10.37 W/m2 FEW
18:00 31.4 °F /  -0.3 °C 30.1 °F /  -1.1 °C 30.10 in /  1019.2 hPa East 1.0 mph /  1.6 km/h 5.0 mph /  8 km/h 95 % 0.00 in /  0 mm WeatherDisplay:10.37 W/m2 RA
18:05 31.4 °F /  -0.3 °C 30.1 °F /  -1.1 °C 30.10 in /  1019.2 hPa East 1.0 mph /  1.6 km/h 5.0 mph /  8 km/h 95 % 0.00 in /  0 mm WeatherDisplay:10.37 W/m2 FEW
18:15 31.5 °F /  -0.3 °C 30.2 °F /  -1 °C 30.10 in /  1019.2 hPa East 1.0 mph /  1.6 km/h 9.0 mph /  14.5 km/h 95 % 0.00 in /  0 mm WeatherDisplay:10.37 W/m2 RA
18:20 31.6 °F /  -0.2 °C 30.3 °F /  -0.9 °C 30.10 in /  1019.2 hPa ESE 2.0 mph /  3.2 km/h 13.0 mph /  20.9 km/h 95 % 0.01 in /  0.25 mm WeatherDisplay:10.37 W/m2 RA
18:35 31.6 °F /  -0.2 °C 30.4 °F /  -0.9 °C 30.09 in /  1018.8 hPa East 1.0 mph /  1.6 km/h 8.0 mph /  12.9 km/h 95 % 0.01 in /  0.25 mm WeatherDisplay:10.37 W/m2 RA
18:45 31.7 °F /  -0.2 °C 30.4 °F /  -0.9 °C 30.08 in /  1018.5 hPa East 2.0 mph /  3.2 km/h 10.0 mph /  16.1 km/h 95 % 0.01 in /  0.25 mm WeatherDisplay:10.37 W/m2 RA
18:50 31.7 °F /  -0.2 °C 30.4 °F /  -0.9 °C 30.08 in /  1018.5 hPa East 1.0 mph /  1.6 km/h 6.0 mph /  9.7 km/h 95 % 0.00 in /  0 mm WeatherDisplay:10.37 W/m2 RA
19:00 31.8 °F /  -0.1 °C 30.5 °F /  -0.8 °C 30.07 in /  1018.2 hPa East 2.0 mph /  3.2 km/h 8.0 mph /  12.9 km/h 95 % 0.01 in /  0.25 mm WeatherDisplay:10.37 W/m2 RA
19:05 31.8 °F /  -0.1 °C 30.5 °F /  -0.8 °C 30.07 in /  1018.2 hPa East 1.0 mph /  1.6 km/h 5.0 mph /  8 km/h 95 % 0.01 in /  0.25 mm WeatherDisplay:10.37 W/m2 RA
19:10 31.8 °F /  -0.1 °C 30.8 °F /  -0.7 °C 30.06 in /  1017.8 hPa East 1.0 mph /  1.6 km/h 3.0 mph /  4.8 km/h 96 % 0.01 in /  0.25 mm WeatherDisplay:10.37 W/m2 RA
19:25 31.9 °F /  -0.1 °C 30.9 °F /  -0.6 °C 30.05 in /  1017.5 hPa East 1.0 mph /  1.6 km/h 7.0 mph /  11.3 km/h 96 % 0.00 in /  0 mm WeatherDisplay:10.37 W/m2 RA
19:40 32.0 °F /  0 °C 31.0 °F /  -0.6 °C 30.04 in /  1017.2 hPa Calm   5.0 mph /  8 km/h 96 % 0.01 in /  0.25 mm WeatherDisplay:10.37 W/m2 RA
19:45 32.1 °F /  0.1 °C 31.1 °F /  -0.5 °C 30.04 in /  1017.2 hPa Calm   6.0 mph /  9.7 km/h 96 % 0.00 in /  0 mm WeatherDisplay:10.37 W/m2 RA
19:50 32.1 °F /  0.1 °C 31.1 °F /  -0.5 °C 30.03 in /  1016.8 hPa ESE 1.0 mph /  1.6 km/h 6.0 mph /  9.7 km/h 96 % 0.01 in /  0.25 mm WeatherDisplay:10.37 W/m2 RA
20:00 32.2 °F /  0.1 °C 31.2 °F /  -0.4 °C 30.02 in /  1016.5 hPa East 1.0 mph /  1.6 km/h 6.0 mph /  9.7 km/h 96 % 0.01 in /  0.25 mm WeatherDisplay:10.37 W/m2 RA
20:10 32.2 °F /  0.1 °C 31.2 °F /  -0.4 °C 30.01 in /  1016.1 hPa East 1.0 mph /  1.6 km/h 3.0 mph /  4.8 km/h 96 % 0.00 in /  0 mm WeatherDisplay:10.37 W/m2 RA
20:20 32.3 °F /  0.2 °C 31.3 °F /  -0.4 °C 30.00 in /  1015.8 hPa Calm   3.0 mph /  4.8 km/h 96 % 0.01 in /  0.25 mm WeatherDisplay:10.37 W/m2 RA
20:35 32.4 °F /  0.2 °C 31.4 °F /  -0.3 °C 29.99 in /  1015.5 hPa Calm   2.0 mph /  3.2 km/h 96 % 0.01 in /  0.25 mm WeatherDisplay:10.37 W/m2 RA
20:40 32.4 °F /  0.2 °C 31.4 °F /  -0.3 °C 29.99 in /  1015.5 hPa Calm   7.0 mph /  11.3 km/h 96 % 0.01 in /  0.25 mm WeatherDisplay:10.37 W/m2 RA
20:45 32.4 °F /  0.2 °C 31.4 °F /  -0.3 °C 29.98 in /  1015.1 hPa East 1.0 mph /  1.6 km/h 3.0 mph /  4.8 km/h 96 % 0.01 in /  0.25 mm WeatherDisplay:10.37 W/m2 RA
20:55 32.4 °F /  0.2 °C 31.4 °F /  -0.3 °C 29.97 in /  1014.8 hPa East 1.0 mph /  1.6 km/h 6.0 mph /  9.7 km/h 96 % 0.02 in /  0.51 mm WeatherDisplay:10.37 W/m2 RA
21:00 32.4 °F /  0.2 °C 31.4 °F /  -0.3 °C 29.96 in /  1014.4 hPa East 1.0 mph /  1.6 km/h 5.0 mph /  8 km/h 96 % 0.01 in /  0.25 mm WeatherDisplay:10.37 W/m2 RA
21:05 32.4 °F /  0.2 °C 31.4 °F /  -0.3 °C 29.96 in /  1014.4 hPa Calm   5.0 mph /  8 km/h 96 % 0.01 in /  0.25 mm WeatherDisplay:10.37 W/m2 RA
21:15 32.4 °F /  0.2 °C 31.4 °F /  -0.3 °C 29.95 in /  1014.1 hPa Calm   3.0 mph /  4.8 km/h 96 % 0.01 in /  0.25 mm WeatherDisplay:10.37 W/m2 RA
21:25 32.5 °F /  0.3 °C 31.5 °F /  -0.3 °C 29.94 in /  1013.8 hPa East 1.0 mph /  1.6 km/h 5.0 mph /  8 km/h 96 % 0.01 in /  0.25 mm WeatherDisplay:10.37 W/m2 RA
21:35 32.5 °F /  0.3 °C 31.5 °F /  -0.3 °C 29.93 in /  1013.4 hPa East 1.0 mph /  1.6 km/h 5.0 mph /  8 km/h 96 % 0.01 in /  0.25 mm WeatherDisplay:10.37 W/m2 RA
21:50 32.5 °F /  0.3 °C 31.5 °F /  -0.3 °C 29.91 in /  1012.8 hPa Calm   5.0 mph /  8 km/h 96 % 0.01 in /  0.25 mm WeatherDisplay:10.37 W/m2 RA
21:55 32.5 °F /  0.3 °C 31.5 °F /  -0.3 °C 29.91 in /  1012.8 hPa Calm     96 % 0.01 in /  0.25 mm WeatherDisplay:10.37 W/m2 RA
22:10 32.5 °F /  0.3 °C 31.5 °F /  -0.3 °C 29.90 in /  1012.4 hPa Calm     96 % 0.01 in /  0.25 mm WeatherDisplay:10.37 W/m2 RA
22:15 32.5 °F /  0.3 °C 31.5 °F /  -0.3 °C 29.89 in /  1012.1 hPa Calm     96 % 0.01 in /  0.25 mm WeatherDisplay:10.37 W/m2 RA
22:45 32.5 °F /  0.3 °C 31.5 °F /  -0.3 °C 29.87 in /  1011.4 hPa Calm     96 % 0.01 in /  0.25 mm WeatherDisplay:10.37 W/m2 RA
22:50 32.5 °F /  0.3 °C 31.5 °F /  -0.3 °C 29.86 in /  1011.1 hPa Calm     96 % 0.01 in /  0.25 mm WeatherDisplay:10.37 W/m2 RA
23:10 32.5 °F /  0.3 °C 31.5 °F /  -0.3 °C 29.84 in /  1010.4 hPa Calm     96 % 0.01 in /  0.25 mm WeatherDisplay:10.37 W/m2 RA
23:15 32.5 °F /  0.3 °C 31.5 °F /  -0.3 °C 29.85 in /  1010.7 hPa Calm     96 % 0.00 in /  0 mm WeatherDisplay:10.37 W/m2 RA
23:25 32.5 °F /  0.3 °C 32.5 °F /  0.3 °C 29.84 in /  1010.4 hPa Calm     100 % 0.01 in /  0.25 mm WeatherDisplay:10.37 W/m2 RA
23:30 32.5 °F /  0.3 °C 32.5 °F /  0.3 °C 29.83 in /  1010 hPa Calm     100 % 0.02 in /  0.51 mm WeatherDisplay:10.37 W/m2 RA
23:35 32.5 °F /  0.3 °C 32.5 °F /  0.3 °C 29.83 in /  1010 hPa Calm     100 % 0.01 in /  0.25 mm WeatherDisplay:10.37 W/m2 RA
23:45 32.5 °F /  0.3 °C 32.5 °F /  0.3 °C 29.82 in /  1009.7 hPa Calm     100 % 0.01 in /  0.25 mm WeatherDisplay:10.37 W/m2 RA
23:50 32.5 °F /  0.3 °C 32.5 °F /  0.3 °C 29.81 in /  1009.4 hPa Calm     100 % 0.01 in /  0.25 mm WeatherDisplay:10.37 W/m2 RA
Juneau County Weather
Compliments of Weather Underground - 2.25 mb